Alturas Rancheria, California
Current Conditions -  °F | °C
As of 4:55 PM on Friday 24 Oct 2014 (Local Time) from KAAT Reporting Station
Clear Clear  
Wind Chill: 70°   Ceiling: Unl
Heat Index: 70°   Visibility: 10mi
Dew Point: 28°   Wind: 18mph
Humidity: 21%   Direction: 210°SSW
Pressure: 29.91"   Gusts: 28mph
Location:  41.4836°N, 120.55°W
Report Text: KAAT 242355Z AUTO 21016G24KT 10SM CLR 21/M02 A2991 RMK AO2 PK WND 22029/2340 SLP098 T02111022 10222 20161 56013
Loading
Personal Weather Stations






























Interactive Weather Map New forecast layout! Learn more

10-Day Weather Forecast

Advertisements
Track Severe Weather on mobile